• Join FlightAware (Why Join?)
  • Login
  • US Flag 
07:12PM EDT


 

Airport Tracker/Info


-or-


 

Live Flight TrackerFlight Track Log ✈ EJA829P ✈ 09-Jul-2013 ✈ KBGM - KMMU

Flight Track Log - Related Links

Times and Time Zones

All times are in EDT time to prevent confusion due to time zone crossing. See the EJA829P flight status page for this flight to view local times or setup timezone preferences in your user account.

Time Position Orientation Groundspeed Altitude Reporting Facility
EDT Latitude Longitude Course Direction KTS MPH feet Rate Location/Type
05:13PM 42.2031 -75.8542 75° East 238 274 6,800  Level Boston Center
05:14PM 42.2228 -75.7569 75° East 252 290 7,900 1,380 Climbing Boston Center
05:15PM 42.2217 -75.6503 91° East 269 310 9,600 1,500 Climbing Boston Center
05:16PM 42.1742 -75.5556 124° Southeast 281 323 10,900 600 Climbing Boston Center
05:17PM 42.1231 -75.4436 122° Southeast 311 358 10,900  Level Boston Center
05:18PM 42.0717 -75.3322 122° Southeast 334 384 10,900  Level Boston Center
05:19PM 42.0286 -75.2183 117° Southeast 344 396 11,000  Climbing Boston Center
05:20PM 41.9836 -75.1047 118° Southeast 344 396 11,000 -360 Level Boston Center
05:22PM 41.9047 -74.8950 117° Southeast 314 361 10,000 -840 Descending Boston Center
05:23PM 41.8714 -74.7961 114° Southeast 296 341 8,600 -1,260 Descending Boston Center
05:24PM 41.8058 -74.7489 152° Southeast 270 311 7,500 -840 Descending Boston Center
05:25PM 41.7314 -74.7156 162° South 269 310 7,000 -300 Descending Boston Center
05:26PM 41.6569 -74.6881 165° South 279 321 7,000 -180 Level Boston Center
05:27PM 41.5800 -74.6769 174° South 279 321 6,700 -420 Descending Boston Center
05:28PM 41.5069 -74.6828 183° South 273 314 6,100 -240 Descending Boston Center
05:30PM 41.3500 -74.6833 180° South 267 307 6,100  Level New York TRACON
05:31PM 41.2833 -74.6500 159° South 273 314 6,100 -360 Level New York TRACON
05:32PM 41.2167 -74.6000 151° Southeast 267 307 5,400 -840 Descending New York TRACON
05:33PM 41.1500 -74.5500 151° Southeast 268 308 4,500 -780 Descending New York TRACON
05:34PM 41.1000 -74.5000 143° Southeast 263 303 4,000 -600 Descending New York TRACON
05:35PM 41.0333 -74.4500 150° Southeast 245 282 3,300 -540 Descending New York TRACON
05:36PM 40.9667 -74.4000 150° Southeast 232 267 2,900 -600 Descending New York TRACON
05:37PM 40.9167 -74.3667 153° Southeast 183 211 2,100 -720 Descending New York TRACON
05:38PM 40.8667 -74.3667 180° South 183 211 1,500 -600 Descending New York TRACON
05:39PM 40.8333 -74.3833 201° Southwest 142 163 1,000 -540 Descending New York TRACON
05:41PM 40.7993 -74.4149 180° South  Level Estimated
05:48PM 40.7993 -74.4149 180° South  Level Estimated
05:49PM 40.7993 -74.4149 180° South  Level Estimated
05:50PM 40.7993 -74.4149 180° South  Level Estimated
05:51PM 40.7993 -74.4149 180° South  Level Estimated